Wetterdaten: Woche 18.07.16 - 24.07.16 (KW29)
Datum Zeit Temp. A. Feuchte A. Luftdruck Regen Wind Richtung Taupunkt Windchill Windben
18.07.2016 00:00 14,4 C 88 % 1021,3 hPa 0,0 l/m 0,0 km/h (0 Bft) O-SO 12,5 C 14,4 C 0,0 km/h (0 Bft)
18.07.2016 01:00 13,4 C 91 % 1021,2 hPa 0,0 l/m 0,0 km/h (0 Bft) O-SO 11,9 C 13,4 C 0,1 km/h (0 Bft)
18.07.2016 02:00 12,6 C 92 % 1021,0 hPa 0,0 l/m 0,0 km/h (0 Bft) O-SO 11,4 C 12,6 C 0,0 km/h (0 Bft)
18.07.2016 03:00 12,2 C 93 % 1020,9 hPa 0,0 l/m 0,0 km/h (0 Bft) O-SO 11,1 C 12,2 C 0,0 km/h (0 Bft)
18.07.2016 04:00 11,8 C 94 % 1020,7 hPa 0,0 l/m 0,0 km/h (0 Bft) O-SO 10,8 C 11,8 C 0,1 km/h (0 Bft)
18.07.2016 05:00 11,3 C 95 % 1020,8 hPa 0,0 l/m 0,0 km/h (0 Bft) O-SO 10,4 C 11,3 C 0,0 km/h (0 Bft)
18.07.2016 06:00 11,3 C 96 % 1021,0 hPa 0,0 l/m 0,0 km/h (0 Bft) O-SO 10,6 C 11,3 C 0,5 km/h (0 Bft)
18.07.2016 07:00 13,0 C 96 % 1021,1 hPa 0,0 l/m 0,1 km/h (0 Bft) O-SO 12,4 C 13,0 C 0,7 km/h (0 Bft)
18.07.2016 08:00 17,2 C 85 % 1020,8 hPa 0,0 l/m 0,6 km/h (0 Bft) O-SO 14,7 C 17,2 C 1,6 km/h (1 Bft)
18.07.2016 09:00 21,6 C 71 % 1020,7 hPa 0,0 l/m 1,7 km/h (1 Bft) N 16,0 C 21,6 C 4,2 km/h (1 Bft)
18.07.2016 10:00 24,2 C 60 % 1020,6 hPa 0,0 l/m 2,5 km/h (1 Bft) NW 16,0 C 24,2 C 5,7 km/h (2 Bft)
18.07.2016 11:00 25,1 C 55 % 1020,6 hPa 0,0 l/m 2,1 km/h (1 Bft) NO 15,3 C 25,1 C 4,6 km/h (1 Bft)
18.07.2016 12:00 25,2 C 55 % 1020,4 hPa 0,0 l/m 2,2 km/h (1 Bft) NO 15,5 C 25,2 C 5,8 km/h (2 Bft)
18.07.2016 13:00 26,1 C 52 % 1020,1 hPa 0,0 l/m 2,5 km/h (1 Bft) SW 15,5 C 26,1 C 6,4 km/h (2 Bft)
18.07.2016 14:00 26,9 C 51 % 1019,9 hPa 0,0 l/m 2,2 km/h (1 Bft) O 15,8 C 26,9 C 5,5 km/h (2 Bft)
18.07.2016 15:00 26,7 C 50 % 1019,8 hPa 0,0 l/m 2,3 km/h (1 Bft) S 15,5 C 26,7 C 5,3 km/h (1 Bft)
18.07.2016 16:00 26,5 C 52 % 1019,5 hPa 0,0 l/m 2,2 km/h (1 Bft) N-NO 15,9 C 26,5 C 5,2 km/h (1 Bft)
18.07.2016 17:00 26,4 C 52 % 1019,3 hPa 0,0 l/m 1,3 km/h (1 Bft) SO 15,7 C 26,4 C 3,7 km/h (1 Bft)
18.07.2016 18:00 25,1 C 58 % 1019,2 hPa 0,0 l/m 0,6 km/h (0 Bft) W 16,3 C 25,1 C 2,8 km/h (1 Bft)
18.07.2016 19:00 23,8 C 64 % 1019,2 hPa 0,0 l/m 0,4 km/h (0 Bft) W 16,6 C 23,8 C 2,3 km/h (1 Bft)
18.07.2016 20:00 22,6 C 69 % 1019,6 hPa 0,0 l/m 0,1 km/h (0 Bft) W-NW 16,7 C 22,6 C 0,7 km/h (0 Bft)
18.07.2016 21:00 20,1 C 78 % 1020,0 hPa 0,0 l/m 0,0 km/h (0 Bft) W-NW 16,0 C 20,1 C 0,1 km/h (0 Bft)
18.07.2016 22:00 17,9 C 85 % 1020,4 hPa 0,0 l/m 0,0 km/h (0 Bft) W-NW 15,2 C 17,9 C 0,3 km/h (0 Bft)
18.07.2016 23:00 16,1 C 89 % 1020,7 hPa 0,0 l/m 0,0 km/h (0 Bft) W-NW 14,3 C 16,1 C 0,0 km/h (0 Bft)
19.07.2016 00:00 15,0 C 92 % 1020,9 hPa 0,0 l/m 0,0 km/h (0 Bft) W-NW 13,7 C 15,0 C 0,0 km/h (0 Bft)
19.07.2016 01:00 14,3 C 93 % 1020,8 hPa 0,0 l/m 0,1 km/h (0 Bft) W-NW 13,2 C 14,3 C 0,3 km/h (0 Bft)
19.07.2016 02:00 13,6 C 94 % 1020,7 hPa 0,0 l/m 0,0 km/h (0 Bft) W-NW 12,6 C 13,6 C 0,1 km/h (0 Bft)
19.07.2016 03:00 13,1 C 95 % 1020,5 hPa 0,0 l/m 0,0 km/h (0 Bft) W-NW 12,3 C 13,1 C 0,1 km/h (0 Bft)
19.07.2016 04:00 12,5 C 95 % 1020,4 hPa 0,0 l/m 0,1 km/h (0 Bft) W-NW 11,7 C 12,5 C 0,3 km/h (0 Bft)
19.07.2016 05:00 12,0 C 95 % 1020,2 hPa 0,0 l/m 0,0 km/h (0 Bft) W-NW 11,3 C 12,0 C 0,0 km/h (0 Bft)
19.07.2016 06:00 11,8 C 96 % 1020,4 hPa 0,0 l/m 0,0 km/h (0 Bft) W-NW 11,2 C 11,8 C 0,0 km/h (0 Bft)
19.07.2016 07:00 13,6 C 95 % 1020,4 hPa 0,0 l/m 0,0 km/h (0 Bft) W-NW 12,9 C 13,6 C 0,4 km/h (0 Bft)
19.07.2016 08:00 18,3 C 83 % 1020,3 hPa 0,0 l/m 0,8 km/h (0 Bft) W-NW 15,2 C 18,3 C 2,5 km/h (1 Bft)
19.07.2016 09:00 22,7 C 67 % 1020,0 hPa 0,0 l/m 2,3 km/h (1 Bft) SW 16,1 C 22,7 C 5,5 km/h (2 Bft)
19.07.2016 10:00 25,2 C 56 % 1019,9 hPa 0,0 l/m 2,2 km/h (1 Bft) S-SW 15,8 C 25,2 C 6,8 km/h (2 Bft)
19.07.2016 11:00 26,9 C 51 % 1019,7 hPa 0,0 l/m 2,9 km/h (1 Bft) N-NO 15,7 C 26,9 C 6,9 km/h (2 Bft)
19.07.2016 12:00 27,7 C 48 % 1019,4 hPa 0,0 l/m 3,0 km/h (1 Bft) N-NO 15,7 C 27,7 C 7,7 km/h (2 Bft)
19.07.2016 13:00 28,8 C 44 % 1019,1 hPa 0,0 l/m 3,0 km/h (1 Bft) NO 15,2 C 28,8 C 6,9 km/h (2 Bft)
19.07.2016 14:00 29,8 C 39 % 1018,5 hPa 0,0 l/m 3,0 km/h (1 Bft) NO 14,5 C 29,8 C 7,6 km/h (2 Bft)
19.07.2016 15:00 30,3 C 38 % 1018,1 hPa 0,0 l/m 3,4 km/h (1 Bft) NO 14,4 C 30,3 C 8,2 km/h (2 Bft)
19.07.2016 16:00 30,9 C 37 % 1017,4 hPa 0,0 l/m 3,0 km/h (1 Bft) O-NO 14,6 C 30,9 C 7,9 km/h (2 Bft)
19.07.2016 17:00 30,5 C 38 % 1017,0 hPa 0,0 l/m 2,5 km/h (1 Bft) W 14,4 C 30,5 C 6,6 km/h (2 Bft)
19.07.2016 18:00 29,3 C 41 % 1016,6 hPa 0,0 l/m 2,1 km/h (1 Bft) NW 14,5 C 29,3 C 5,8 km/h (2 Bft)
19.07.2016 19:00 28,3 C 43 % 1016,3 hPa 0,0 l/m 2,5 km/h (1 Bft) W 14,6 C 28,3 C 6,3 km/h (2 Bft)
19.07.2016 20:00 26,4 C 50 % 1016,4 hPa 0,0 l/m 1,0 km/h (0 Bft) W 15,2 C 26,4 C 3,5 km/h (1 Bft)
19.07.2016 21:00 23,4 C 64 % 1016,6 hPa 0,0 l/m 0,0 km/h (0 Bft) W 16,1 C 23,4 C 0,1 km/h (0 Bft)
19.07.2016 22:00 20,4 C 74 % 1016,9 hPa 0,0 l/m 0,0 km/h (0 Bft) W 15,7 C 20,4 C 0,3 km/h (0 Bft)
19.07.2016 23:00 18,6 C 80 % 1016,9 hPa 0,0 l/m 0,0 km/h (0 Bft) W 15,1 C 18,6 C 0,1 km/h (0 Bft)
20.07.2016 00:00 17,1 C 85 % 1017,0 hPa 0,0 l/m 0,0 km/h (0 Bft) W 14,5 C 17,1 C 0,0 km/h (0 Bft)
20.07.2016 01:00 16,0 C 88 % 1016,9 hPa 0,0 l/m 0,0 km/h (0 Bft) W 14,0 C 16,0 C 0,0 km/h (0 Bft)
20.07.2016 02:00 15,0 C 90 % 1016,8 hPa 0,0 l/m 0,0 km/h (0 Bft) W 13,4 C 15,0 C 0,0 km/h (0 Bft)
20.07.2016 03:00 14,3 C 92 % 1016,7 hPa 0,0 l/m 0,0 km/h (0 Bft) W 13,0 C 14,3 C 0,0 km/h (0 Bft)
20.07.2016 04:00 13,6 C 93 % 1016,4 hPa 0,0 l/m 0,0 km/h (0 Bft) W 12,6 C 13,6 C 0,0 km/h (0 Bft)
20.07.2016 05:00 13,2 C 94 % 1016,2 hPa 0,0 l/m 0,0 km/h (0 Bft) W 12,3 C 13,2 C 0,0 km/h (0 Bft)
20.07.2016 06:00 12,8 C 95 % 1016,2 hPa 0,0 l/m 0,0 km/h (0 Bft) W 12,0 C 12,8 C 0,0 km/h (0 Bft)
20.07.2016 07:00 14,8 C 93 % 1016,1 hPa 0,0 l/m 0,1 km/h (0 Bft) W 13,5 C 14,8 C 0,7 km/h (0 Bft)
20.07.2016 08:00 20,6 C 75 % 1015,6 hPa 0,0 l/m 0,7 km/h (0 Bft) W 16,0 C 20,6 C 2,7 km/h (1 Bft)
20.07.2016 09:00 25,1 C 61 % 1015,3 hPa 0,0 l/m 2,0 km/h (1 Bft) O 16,9 C 25,1 C 5,3 km/h (1 Bft)
20.07.2016 10:00 27,8 C 49 % 1014,9 hPa 0,0 l/m 2,7 km/h (1 Bft) NO 16,1 C 27,8 C 7,1 km/h (2 Bft)
20.07.2016 11:00 29,8 C 40 % 1014,5 hPa 0,0 l/m 3,3 km/h (1 Bft) NO 14,8 C 29,8 C 7,7 km/h (2 Bft)
20.07.2016 12:00 30,7 C 38 % 1014,1 hPa 0,0 l/m 3,3 km/h (1 Bft) O-NO 14,6 C 30,7 C 8,5 km/h (2 Bft)
20.07.2016 13:00 31,7 C 34 % 1013,7 hPa 0,0 l/m 3,2 km/h (1 Bft) NW 14,1 C 31,7 C 6,7 km/h (2 Bft)
20.07.2016 14:00 32,5 C 33 % 1013,3 hPa 0,0 l/m 3,6 km/h (1 Bft) O-NO 13,9 C 32,5 C 8,6 km/h (2 Bft)
20.07.2016 15:00 33,2 C 30 % 1012,8 hPa 0,0 l/m 4,4 km/h (1 Bft) O-NO 13,3 C 33,2 C 11,4 km/h (2 Bft)
20.07.2016 16:00 33,3 C 33 % 1012,3 hPa 0,0 l/m 4,2 km/h (1 Bft) NO 14,7 C 33,3 C 10,2 km/h (2 Bft)
20.07.2016 17:00 33,4 C 30 % 1012,0 hPa 0,0 l/m 3,5 km/h (1 Bft) O 13,1 C 33,4 C 10,2 km/h (2 Bft)
20.07.2016 18:00 33,2 C 23 % 1012,0 hPa 0,0 l/m 3,6 km/h (1 Bft) O 9,0 C 33,2 C 9,5 km/h (2 Bft)
20.07.2016 19:00 30,9 C 32 % 1011,9 hPa 0,0 l/m 1,7 km/h (1 Bft) O-NO 12,0 C 30,9 C 4,7 km/h (1 Bft)
20.07.2016 20:00 27,9 C 44 % 1012,3 hPa 0,0 l/m 0,3 km/h (0 Bft) O 14,3 C 27,9 C 1,3 km/h (1 Bft)
20.07.2016 21:00 24,9 C 56 % 1012,4 hPa 0,0 l/m 0,0 km/h (0 Bft) O 15,5 C 24,9 C 0,1 km/h (0 Bft)
20.07.2016 22:00 22,4 C 66 % 1012,5 hPa 0,0 l/m 0,0 km/h (0 Bft) O 15,6 C 22,4 C 0,0 km/h (0 Bft)
20.07.2016 23:00 21,8 C 67 % 1012,2 hPa 0,0 l/m 0,1 km/h (0 Bft) O 15,5 C 21,8 C 0,7 km/h (0 Bft)
21.07.2016 00:00 21,1 C 72 % 1012,0 hPa 0,0 l/m 0,1 km/h (0 Bft) O 15,8 C 21,1 C 0,8 km/h (0 Bft)
21.07.2016 01:00 20,4 C 75 % 1011,6 hPa 0,0 l/m 0,0 km/h (0 Bft) O 15,9 C 20,4 C 0,0 km/h (0 Bft)
21.07.2016 02:00 19,9 C 77 % 1011,6 hPa 0,0 l/m 0,2 km/h (0 Bft) O 15,7 C 19,9 C 1,3 km/h (1 Bft)
21.07.2016 03:00 20,5 C 75 % 1011,9 hPa 0,0 l/m 3,0 km/h (1 Bft) O-NO 15,8 C 20,3 C 8,6 km/h (2 Bft)
21.07.2016 04:00 18,8 C 86 % 1014,2 hPa 1,0 l/m 6,2 km/h (2 Bft) O 16,3 C 18,5 C 17,4 km/h (3 Bft)
21.07.2016 05:00 17,1 C 91 % 1014,0 hPa 0,8 l/m 1,7 km/h (1 Bft) NW 15,6 C 17,1 C 5,2 km/h (1 Bft)
21.07.2016 06:00 16,6 C 93 % 1013,7 hPa 0,0 l/m 0,6 km/h (0 Bft) W 15,5 C 16,6 C 3,1 km/h (1 Bft)
21.07.2016 07:00 17,0 C 93 % 1014,1 hPa 0,0 l/m 0,6 km/h (0 Bft) N 15,8 C 17,0 C 2,4 km/h (1 Bft)
21.07.2016 08:00 18,9 C 88 % 1014,2 hPa 0,0 l/m 1,1 km/h (1 Bft) NO 16,9 C 18,9 C 3,5 km/h (1 Bft)
21.07.2016 09:00 21,6 C 77 % 1014,1 hPa 0,0 l/m 1,8 km/h (1 Bft) NO 17,4 C 21,6 C 5,6 km/h (2 Bft)
21.07.2016 10:00 23,0 C 71 % 1013,7 hPa 0,0 l/m 2,3 km/h (1 Bft) NO 17,5 C 23,0 C 6,4 km/h (2 Bft)
21.07.2016 11:00 24,3 C 64 % 1013,7 hPa 0,0 l/m 3,8 km/h (1 Bft) NO 17,0 C 24,3 C 9,7 km/h (2 Bft)
21.07.2016 12:00 25,4 C 56 % 1013,6 hPa 0,0 l/m 4,7 km/h (1 Bft) O-NO 16,1 C 25,4 C 11,6 km/h (2 Bft)
21.07.2016 13:00 26,0 C 52 % 1013,5 hPa 0,0 l/m 5,8 km/h (2 Bft) NO 15,5 C 26,0 C 14,9 km/h (3 Bft)
21.07.2016 14:00 26,8 C 49 % 1013,4 hPa 0,0 l/m 5,6 km/h (2 Bft) NO 15,3 C 26,8 C 14,1 km/h (3 Bft)
21.07.2016 15:00 27,6 C 45 % 1013,3 hPa 0,0 l/m 5,2 km/h (1 Bft) NO 14,4 C 27,6 C 12,8 km/h (3 Bft)
21.07.2016 16:00 28,2 C 44 % 1013,3 hPa 0,0 l/m 3,0 km/h (1 Bft) O-NO 14,6 C 28,2 C 8,3 km/h (2 Bft)
21.07.2016 17:00 28,2 C 42 % 1013,2 hPa 0,0 l/m 2,6 km/h (1 Bft) S-SO 13,9 C 28,2 C 7,2 km/h (2 Bft)
21.07.2016 18:00 27,4 C 41 % 1013,3 hPa 0,0 l/m 2,8 km/h (1 Bft) S-SW 13,0 C 27,4 C 6,4 km/h (2 Bft)
21.07.2016 19:00 25,4 C 45 % 1013,4 hPa 0,0 l/m 2,8 km/h (1 Bft) W-NW 12,5 C 25,4 C 8,6 km/h (2 Bft)
21.07.2016 20:00 23,3 C 54 % 1013,9 hPa 0,0 l/m 2,1 km/h (1 Bft) NW 13,3 C 23,3 C 6,7 km/h (2 Bft)
21.07.2016 21:00 21,0 C 66 % 1014,7 hPa 0,0 l/m 1,0 km/h (0 Bft) W 14,4 C 21,0 C 3,5 km/h (1 Bft)
21.07.2016 22:00 18,8 C 76 % 1014,7 hPa 0,0 l/m 0,2 km/h (0 Bft) W-SW 14,4 C 18,8 C 1,1 km/h (0 Bft)
21.07.2016 23:00 16,9 C 83 % 1014,7 hPa 0,0 l/m 0,1 km/h (0 Bft) W-SW 14,0 C 16,9 C 0,8 km/h (0 Bft)
22.07.2016 00:00 16,1 C 86 % 1015,0 hPa 0,0 l/m 0,2 km/h (0 Bft) W-SW 13,8 C 16,1 C 0,9 km/h (0 Bft)
22.07.2016 01:00 15,4 C 89 % 1015,0 hPa 0,0 l/m 0,1 km/h (0 Bft) W-SW 13,5 C 15,4 C 0,5 km/h (0 Bft)
22.07.2016 02:00 14,6 C 91 % 1014,8 hPa 0,0 l/m 0,1 km/h (0 Bft) W-SW 13,2 C 14,6 C 0,8 km/h (0 Bft)
22.07.2016 03:00 14,0 C 93 % 1014,5 hPa 0,0 l/m 0,1 km/h (0 Bft) W-SW 12,8 C 14,0 C 0,5 km/h (0 Bft)
22.07.2016 04:00 13,7 C 94 % 1014,2 hPa 0,0 l/m 0,0 km/h (0 Bft) W-SW 12,6 C 13,7 C 0,3 km/h (0 Bft)
22.07.2016 05:00 13,2 C 94 % 1014,1 hPa 0,0 l/m 0,0 km/h (0 Bft) W-SW 12,3 C 13,2 C 0,4 km/h (0 Bft)
22.07.2016 06:00 12,9 C 95 % 1014,2 hPa 0,0 l/m 0,1 km/h (0 Bft) W-SW 12,2 C 12,9 C 1,2 km/h (1 Bft)
22.07.2016 07:00 15,0 C 94 % 1014,2 hPa 0,0 l/m 0,2 km/h (0 Bft) W-SW 14,0 C 15,0 C 1,2 km/h (1 Bft)
22.07.2016 08:00 17,8 C 87 % 1014,2 hPa 0,0 l/m 0,9 km/h (0 Bft) W-SW 15,6 C 17,8 C 2,7 km/h (1 Bft)
22.07.2016 09:00 21,9 C 68 % 1014,2 hPa 0,0 l/m 2,2 km/h (1 Bft) O-NO 15,7 C 21,9 C 5,3 km/h (1 Bft)
22.07.2016 10:00 24,1 C 57 % 1013,7 hPa 0,0 l/m 2,1 km/h (1 Bft) NW 15,1 C 24,1 C 5,2 km/h (1 Bft)
22.07.2016 11:00 24,9 C 54 % 1013,0 hPa 0,0 l/m 2,4 km/h (1 Bft) W-NW 14,8 C 24,9 C 6,4 km/h (2 Bft)
22.07.2016 12:00 25,4 C 53 % 1012,7 hPa 0,0 l/m 2,2 km/h (1 Bft) W 15,1 C 25,4 C 4,3 km/h (1 Bft)
22.07.2016 13:00 26,1 C 51 % 1012,7 hPa 0,0 l/m 1,7 km/h (1 Bft) W-SW 15,2 C 26,1 C 4,0 km/h (1 Bft)
22.07.2016 14:00 26,9 C 49 % 1012,7 hPa 0,0 l/m 2,3 km/h (1 Bft) W-NW 15,1 C 26,9 C 6,1 km/h (2 Bft)
22.07.2016 15:00 27,5 C 47 % 1012,2 hPa 0,0 l/m 2,9 km/h (1 Bft) NW 15,0 C 27,5 C 6,8 km/h (2 Bft)
22.07.2016 16:00 26,4 C 52 % 1012,2 hPa 0,0 l/m 2,4 km/h (1 Bft) N-NO 15,8 C 26,4 C 6,3 km/h (2 Bft)
22.07.2016 17:00 23,0 C 66 % 1012,8 hPa 0,0 l/m 5,5 km/h (2 Bft) O-NO 16,2 C 22,8 C 13,7 km/h (3 Bft)
22.07.2016 18:00 17,7 C 92 % 1014,0 hPa 11,2 l/m 6,3 km/h (2 Bft) O 16,3 C 17,1 C 14,5 km/h (3 Bft)
22.07.2016 19:00 17,2 C 95 % 1014,1 hPa 5,6 l/m 0,9 km/h (0 Bft) S-SO 16,4 C 17,2 C 3,3 km/h (1 Bft)
22.07.2016 20:00 17,2 C 96 % 1014,5 hPa 0,8 l/m 0,3 km/h (0 Bft) S-SO 16,5 C 17,2 C 1,2 km/h (1 Bft)
22.07.2016 21:00 17,1 C 96 % 1014,3 hPa 0,0 l/m 0,4 km/h (0 Bft) S-SO 16,5 C 17,1 C 2,1 km/h (1 Bft)
22.07.2016 22:00 16,9 C 96 % 1014,7 hPa 0,0 l/m 1,0 km/h (0 Bft) O 16,3 C 16,9 C 2,9 km/h (1 Bft)
22.07.2016 23:00 16,7 C 96 % 1015,1 hPa 0,0 l/m 0,6 km/h (0 Bft) O-NO 16,1 C 16,7 C 2,3 km/h (1 Bft)
23.07.2016 00:00 16,4 C 97 % 1015,2 hPa 0,0 l/m 0,4 km/h (0 Bft) O-NO 15,9 C 16,4 C 2,3 km/h (1 Bft)
23.07.2016 01:00 16,3 C 97 % 1015,0 hPa 0,0 l/m 0,2 km/h (0 Bft) O-NO 15,7 C 16,3 C 1,2 km/h (1 Bft)
23.07.2016 02:00 16,0 C 97 % 1014,8 hPa 0,0 l/m 0,2 km/h (0 Bft) O-NO 15,5 C 16,0 C 1,2 km/h (1 Bft)
23.07.2016 03:00 15,9 C 97 % 1015,0 hPa 0,0 l/m 0,1 km/h (0 Bft) O-NO 15,4 C 15,9 C 0,7 km/h (0 Bft)
23.07.2016 04:00 15,7 C 97 % 1014,5 hPa 0,0 l/m 0,1 km/h (0 Bft) O-NO 15,2 C 15,7 C 0,5 km/h (0 Bft)
23.07.2016 05:00 15,6 C 97 % 1014,7 hPa 0,0 l/m 0,4 km/h (0 Bft) O-NO 15,2 C 15,6 C 1,7 km/h (1 Bft)
23.07.2016 06:00 15,8 C 98 % 1014,9 hPa 0,0 l/m 1,1 km/h (1 Bft) O 15,4 C 15,8 C 3,6 km/h (1 Bft)
23.07.2016 07:00 16,1 C 97 % 1015,0 hPa 0,0 l/m 0,4 km/h (0 Bft) SW 15,6 C 16,1 C 1,9 km/h (1 Bft)
23.07.2016 08:00 17,1 C 96 % 1015,0 hPa 0,0 l/m 1,0 km/h (0 Bft) SW 16,4 C 17,1 C 2,7 km/h (1 Bft)
23.07.2016 09:00 18,0 C 91 % 1015,5 hPa 0,0 l/m 1,2 km/h (1 Bft) O-NO 16,5 C 18,0 C 3,2 km/h (1 Bft)
23.07.2016 10:00 18,5 C 89 % 1015,8 hPa 0,0 l/m 2,1 km/h (1 Bft) O-NO 16,6 C 18,5 C 5,5 km/h (2 Bft)
23.07.2016 11:00 20,3 C 80 % 1016,1 hPa 0,0 l/m 2,4 km/h (1 Bft) O-NO 16,6 C 20,3 C 5,8 km/h (2 Bft)
23.07.2016 12:00 21,5 C 74 % 1015,9 hPa 0,0 l/m 3,5 km/h (1 Bft) O-NO 16,6 C 21,5 C 8,5 km/h (2 Bft)
23.07.2016 13:00 23,1 C 67 % 1016,0 hPa 0,0 l/m 3,0 km/h (1 Bft) S 16,6 C 23,1 C 7,9 km/h (2 Bft)
23.07.2016 14:00 23,9 C 64 % 1015,9 hPa 0,0 l/m 2,8 km/h (1 Bft) O-NO 16,7 C 23,9 C 6,8 km/h (2 Bft)
23.07.2016 15:00 23,5 C 63 % 1015,9 hPa 0,0 l/m 3,5 km/h (1 Bft) O-NO 16,1 C 23,5 C 8,7 km/h (2 Bft)
23.07.2016 16:00 24,3 C 61 % 1015,6 hPa 0,0 l/m 3,5 km/h (1 Bft) O-NO 16,2 C 24,3 C 8,6 km/h (2 Bft)
23.07.2016 17:00 25,1 C 57 % 1015,2 hPa 0,0 l/m 4,0 km/h (1 Bft) O-NO 16,1 C 25,1 C 9,7 km/h (2 Bft)
23.07.2016 18:00 24,4 C 62 % 1015,4 hPa 0,0 l/m 3,9 km/h (1 Bft) O 16,6 C 24,4 C 9,8 km/h (2 Bft)
23.07.2016 19:00 23,1 C 64 % 1015,5 hPa 0,0 l/m 3,9 km/h (1 Bft) O-NO 16,0 C 23,1 C 10,5 km/h (2 Bft)
23.07.2016 20:00 22,3 C 68 % 1015,9 hPa 0,0 l/m 2,5 km/h (1 Bft) O 15,9 C 22,3 C 6,4 km/h (2 Bft)
23.07.2016 21:00 20,9 C 74 % 1016,5 hPa 0,0 l/m 0,9 km/h (0 Bft) O 16,1 C 20,9 C 2,8 km/h (1 Bft)
23.07.2016 22:00 19,3 C 82 % 1017,1 hPa 0,0 l/m 0,1 km/h (0 Bft) O 16,1 C 19,3 C 0,4 km/h (0 Bft)
23.07.2016 23:00 18,2 C 87 % 1017,5 hPa 0,0 l/m 0,3 km/h (0 Bft) O 16,1 C 18,2 C 1,6 km/h (1 Bft)
24.07.2016 00:00 17,6 C 89 % 1017,5 hPa 0,0 l/m 0,1 km/h (0 Bft) O 15,8 C 17,6 C 0,9 km/h (0 Bft)
24.07.2016 01:00 16,9 C 92 % 1017,5 hPa 0,0 l/m 0,1 km/h (0 Bft) O 15,5 C 16,9 C 0,8 km/h (0 Bft)
24.07.2016 02:00 16,5 C 94 % 1017,4 hPa 0,0 l/m 0,1 km/h (0 Bft) O 15,4 C 16,5 C 0,9 km/h (0 Bft)
24.07.2016 03:00 16,1 C 95 % 1017,6 hPa 0,0 l/m 0,0 km/h (0 Bft) O 15,3 C 16,1 C 0,3 km/h (0 Bft)
24.07.2016 04:00 16,4 C 95 % 1017,3 hPa 0,0 l/m 0,6 km/h (0 Bft) O 15,6 C 16,4 C 2,3 km/h (1 Bft)
24.07.2016 05:00 16,3 C 95 % 1017,1 hPa 0,0 l/m 0,6 km/h (0 Bft) O 15,6 C 16,3 C 2,4 km/h (1 Bft)
24.07.2016 06:00 16,2 C 95 % 1017,1 hPa 0,0 l/m 0,4 km/h (0 Bft) O 15,4 C 16,2 C 1,9 km/h (1 Bft)
24.07.2016 07:00 16,7 C 96 % 1017,3 hPa 0,0 l/m 0,1 km/h (0 Bft) O 16,0 C 16,7 C 0,9 km/h (0 Bft)
24.07.2016 08:00 17,5 C 93 % 1017,5 hPa 0,0 l/m 1,2 km/h (1 Bft) O-NO 16,4 C 17,5 C 3,6 km/h (1 Bft)
24.07.2016 09:00 18,9 C 87 % 1017,8 hPa 0,0 l/m 1,7 km/h (1 Bft) O 16,7 C 18,9 C 4,5 km/h (1 Bft)
24.07.2016 10:00 20,9 C 77 % 1017,7 hPa 0,0 l/m 2,4 km/h (1 Bft) O-NO 16,6 C 20,9 C 6,4 km/h (2 Bft)
24.07.2016 11:00 22,3 C 68 % 1017,4 hPa 0,0 l/m 3,1 km/h (1 Bft) O-NO 16,1 C 22,3 C 5,3 km/h (1 Bft)
24.07.2016 12:00 23,7 C 63 % 1017,1 hPa 0,0 l/m 3,6 km/h (1 Bft) NO 16,2 C 23,7 C 8,5 km/h (2 Bft)
24.07.2016 13:00 24,7 C 59 % 1017,0 hPa 0,0 l/m 4,4 km/h (1 Bft) O-NO 16,1 C 24,7 C 10,3 km/h (2 Bft)
24.07.2016 14:00 25,9 C 55 % 1016,9 hPa 0,0 l/m 4,6 km/h (1 Bft) NO 16,2 C 25,9 C 12,6 km/h (3 Bft)
24.07.2016 15:00 25,9 C 56 % 1016,7 hPa 0,0 l/m 4,7 km/h (1 Bft) NO 16,4 C 25,9 C 11,8 km/h (2 Bft)
24.07.2016 16:00 25,2 C 58 % 1016,7 hPa 0,0 l/m 3,7 km/h (1 Bft) O-NO 16,2 C 25,2 C 9,3 km/h (2 Bft)
24.07.2016 17:00 23,9 C 66 % 1016,7 hPa 0,0 l/m 2,3 km/h (1 Bft) S-SW 17,2 C 23,9 C 6,5 km/h (2 Bft)
24.07.2016 18:00 22,8 C 72 % 1016,7 hPa 0,0 l/m 1,8 km/h (1 Bft) N-NW 17,4 C 22,8 C 5,2 km/h (1 Bft)
24.07.2016 19:00 21,3 C 78 % 1017,0 hPa 0,0 l/m 1,3 km/h (1 Bft) N 17,2 C 21,3 C 3,9 km/h (1 Bft)
24.07.2016 20:00 21,3 C 78 % 1017,1 hPa 0,0 l/m 0,4 km/h (0 Bft) N 17,3 C 21,3 C 2,0 km/h (1 Bft)
24.07.2016 21:00 20,3 C 82 % 1017,6 hPa 0,0 l/m 0,3 km/h (0 Bft) W 17,2 C 20,3 C 1,6 km/h (1 Bft)
24.07.2016 22:00 18,9 C 87 % 1018,1 hPa 0,0 l/m 0,6 km/h (0 Bft) W 16,6 C 18,9 C 2,3 km/h (1 Bft)
24.07.2016 23:00 17,6 C 90 % 1018,2 hPa 0,0 l/m 0,1 km/h (0 Bft) W 15,9 C 17,6 C 1,2 km/h (1 Bft)
Min-Datum _ 18.07.16 20.07.16 21.07.16 - 24.07.16 - 20.07.16 18.07.16 24.07.16
_ Min-Zeit 06:00 18:15 01:45 - 23:15 - 18:20 06:00 23:15
Minimum _ 11,1 C 19 % 1011,4 hPa - 0,0 km/h (0 Bft) - 6,6 C 11,1 C 0,0 km/h (0 Bft)
Max-Datum _ 20.07.16 23.07.16 18.07.16 22.07.16 22.07.16 - 20.07.16 20.07.16 22.07.16
_ Max-Zeit 17:40 07:15 01:00 18:25 18:10 - 09:10 17:40 18:05
Maximum _ 33,9 C 98 % 1021,4 hPa 11,2 l/m 12,2 km/h
O (2 Bft)
- 17,9 C 33,9 C 29,0 km/h
O-NO (5 Bft)
Durchschnitt _ 21,0 C 73 % 1016,3 hPa #19,3 l/m 1,6 km/h (1 Bft) O 15,0 C 21,0 C 4,2 km/h (1 Bft)